AKDT,Max TemperatureF,Mean TemperatureF,Min TemperatureF,Max Dew PointF,MeanDew PointF,Min DewpointF,Max Humidity, Mean Humidity, Min Humidity, Max Sea Level PressureIn, Mean Sea Level PressureIn, Min Sea Level PressureIn, Max VisibilityMiles, Mean VisibilityMiles, Min VisibilityMiles, Max Wind SpeedMPH, Mean Wind SpeedMPH, Max Gust SpeedMPH,PrecipitationIn, CloudCover, Events, WindDirDegrees
2010-10-1,59,47,35,42,34,30,83,63,39,29.56,29.31,29.10,10,10,10,10,6,,0.01,7,Rain,45
2010-10-2,59,46,33,42,35,29,97,72,32,29.50,29.25,29.11,10,10,10,9,5,,0.00,5,,25
2010-10-3,57,43,28,31,27,23,89,61,28,29.58,29.48,29.36,10,10,10,12,2,,0.00,5,,51
2010-10-4,49,39,29,34,29,23,82,60,37,29.62,29.56,29.41,10,10,10,9,4,,0.00,6,,18
2010-10-5,48,36,23,28,26,22,92,73,44,29.60,29.39,29.25,10,10,10,8,5,,0.00,3,,45
2010-10-6,40,34,28,35,30,24,96,87,78,29.59,29.50,29.42,10,8,2,7,4,,0.01,7,Rain-Snow,19
2010-10-7,36,32,28,32,30,27,100,92,81,29.65,29.63,29.59,10,6,1,5,1,,0.02,8,Fog-Snow,93
2010-10-8,36,32,27,31,29,28,96,86,76,29.73,29.69,29.64,10,10,6,4,0,,T,8,Fog-Snow,100
2010-10-9,42,33,24,28,25,22,100,85,55,29.64,29.51,29.41,10,8,0,8,2,,0.00,5,Fog,17
2010-10-10,33,30,27,28,24,19,96,81,66,29.65,29.47,29.38,10,7,1,9,6,,0.05,6,Snow,356
2010-10-11,33,30,27,29,27,26,100,91,85,29.86,29.77,29.66,10,8,3,5,0,,0.01,8,Snow,246
2010-10-12,32,29,26,30,28,25,100,91,82,29.88,29.84,29.80,10,5,1,7,2,,0.09,8,Snow,350
2010-10-13,28,26,25,25,23,21,96,86,78,30.02,29.97,29.88,10,9,5,10,2,,0.00,8,Snow,13
2010-10-14,31,22,12,21,16,11,88,74,56,29.92,29.87,29.84,10,10,10,9,6,,0.00,3,,6
2010-10-15,26,18,9,16,13,6,88,77,65,29.98,29.95,29.91,10,10,9,8,3,,T,5,Snow,52
2010-10-16,30,20,10,15,11,6,92,74,54,29.91,29.72,29.58,10,10,10,10,6,,0.00,1,,46
2010-10-17,40,30,19,22,17,13,77,65,47,29.57,29.44,29.26,10,10,10,15,7,,0.00,4,,22
2010-10-18,32,29,26,25,22,17,93,76,59,29.50,29.29,29.15,10,6,1,15,10,,0.09,8,Snow,2
2010-10-19,29,23,17,25,24,18,100,93,85,29.75,29.67,29.48,10,5,1,5,1,,T,7,Snow,43
2010-10-20,36,23,10,28,18,7,96,89,79,29.74,29.69,29.65,10,10,10,4,1,,0.00,4,Fog,47
2010-10-21,39,24,8,24,16,6,92,77,55,29.77,29.73,29.68,10,10,10,7,2,,0.00,2,,29
2010-10-22,37,24,11,26,17,13,88,76,52,29.77,29.71,29.61,10,10,10,6,0,,0.00,4,,32
2010-10-23,38,26,13,20,17,13,89,74,50,29.60,29.58,29.57,10,10,10,6,1,,0.00,5,,23
2010-10-24,32,20,8,19,12,6,92,78,59,29.60,29.55,29.47,10,10,10,8,4,,0.00,4,,38
2010-10-25,36,24,12,25,18,11,95,80,62,29.50,29.42,29.39,10,10,10,9,6,,0.00,5,,34
2010-10-26,27,23,19,22,20,17,92,85,75,29.94,29.75,29.52,10,9,7,9,3,,T,6,Snow,108
2010-10-27,32,20,8,22,13,6,96,86,72,30.01,29.89,29.57,10,9,2,6,1,,0.00,2,Fog,30
2010-10-28,36,28,19,25,22,17,89,72,61,29.53,29.29,29.08,10,10,9,8,5,,T,6,Snow,23
2010-10-29,26,25,23,23,22,20,96,89,84,29.11,29.01,28.95,10,3,0,5,2,,0.17,8,Fog-Snow,198
2010-10-30,29,15,1,23,16,2,100,91,75,29.21,29.16,29.12,10,9,0,6,1,,T,5,Fog-Snow,46
2010-10-31,16,6,-4,10,2,-6,91,85,79,29.26,29.21,29.09,10,10,7,8,2,,T,3,Fog-Snow,35